Time;durP1;ratioP1;P1;durP2;ratioP2;P2;SDS_P1;SDS_P2;PMS_P1;PMS_P2;Temp;Humidity;BMP_temperature;BMP_pressure;BME280_temperature;BME280_humidity;BME280_pressure;Samples;Min_cycle;Max_cycle;Signal;HPM_P1;HPM_P2
2022/02/22 00:01:39;;;;;;;15.00;11.00;;;;;;;18.25;37.63;99650.73;101573;1348;61405;-85
2022/02/22 00:04:54;;;;;;;15.40;11.20;;;;;;;18.26;37.68;99657.98;101573;1348;74542;-85
2022/02/22 00:07:47;;;;;;;17.00;11.60;;;;;;;18.25;37.60;99663.91;101072;1357;73850;-84
2022/02/22 00:10:50;;;;;;;;;;;;;;;18.25;37.71;99664.07;101119;1354;61288;-86
2022/02/22 00:13:56;;;;;;;16.30;11.40;;;;;;;18.22;37.64;99663.20;100665;1360;61215;-85
2022/02/22 00:16:59;;;;;;;;;;;;;;;;;;;;;
2022/02/22 00:19:55;;;;;;;;;;;;;;;;;;;;;
2022/02/22 00:22:52;;;;;;;;;;;;;;;;;;;;;
2022/02/22 00:25:59;;;;;;;16.80;11.90;;;;;;;18.23;37.71;99646.61;101009;1349;62966;-84
2022/02/22 00:29:08;;;;;;;18.00;11.40;;;;;;;18.23;37.66;99638.91;101471;1347;73123;-83
2022/02/22 00:32:20;;;;;;;18.50;11.20;;;;;;;18.23;37.67;99633.25;101763;1344;75185;-83
2022/02/22 00:35:20;;;;;;;17.80;11.60;;;;;;;18.23;37.68;99635.19;101774;1344;61373;-83
2022/02/22 00:38:19;;;;;;;16.70;10.90;;;;;;;18.23;37.60;99622.91;101897;1329;61736;-84
2022/02/22 00:41:30;;;;;;;17.20;11.80;;;;;;;18.23;37.69;99624.84;102722;1326;72866;-84
2022/02/22 00:44:30;;;;;;;;;;;;;;;;;;;;;
2022/02/22 00:47:48;;;;;;;16.50;11.30;;;;;;;18.23;37.70;99626.27;102910;1326;61628;-80
2022/02/22 00:50:49;;;;;;;16.80;11.30;;;;;;;18.23;37.64;99625.58;102799;1324;61216;-83
2022/02/22 00:54:05;;;;;;;17.10;11.50;;;;;;;18.23;37.68;99627.90;102483;1332;72802;-86
2022/02/22 00:57:11;;;;;;;15.40;11.40;;;;;;;18.23;37.63;99636.60;102240;1335;75748;-85
2022/02/22 01:00:16;;;;;;;;;;;;;;;;;;;;;
2022/02/22 01:03:24;;;;;;;14.50;11.00;;;;;;;18.23;37.58;99639.14;102360;1334;60364;-83
2022/02/22 01:06:35;;;;;;;;;;;;;;;;;;;;;
2022/02/22 01:09:38;;;;;;;;;;;;;;;;;;;;;
2022/02/22 01:12:55;;;;;;;15.50;11.50;;;;;;;18.23;37.59;99638.05;101909;1338;61281;-83
2022/02/22 01:15:40;;;;;;;14.40;11.30;;;;;;;18.22;37.54;99633.27;101748;1345;61253;-80
2022/02/22 01:18:37;;;;;;;16.60;11.60;;;;;;;18.23;37.65;99633.81;101703;1345;73881;-79
2022/02/22 01:21:49;;;;;;;16.80;11.30;;;;;;;18.22;37.61;99624.36;101862;1338;74841;-81
2022/02/22 01:24:39;;;;;;;15.00;10.40;;;;;;;18.23;37.50;99619.19;102244;1332;61700;-83
2022/02/22 01:27:36;;;;;;;;;;;;;;;;;;;;;
2022/02/22 01:30:45;;;;;;;15.60;10.90;;;;;;;18.22;37.54;99618.14;102559;1329;72583;-85
2022/02/22 01:33:35;;;;;;;16.10;11.00;;;;;;;18.22;37.56;99628.50;102429;1333;76303;-84
2022/02/22 01:36:46;;;;;;;;;;;;;;;;;;;;;
2022/02/22 01:39:58;;;;;;;15.20;11.30;;;;;;;18.22;37.48;99613.19;102211;1333;61361;-83
2022/02/22 01:42:24;;;;;;;17.50;10.70;;;;;;;18.22;37.48;99610.00;102256;1336;73066;-81
2022/02/22 01:45:34;;;;;;;14.80;10.30;;;;;;;18.22;37.48;99612.11;102212;1336;75826;-82
2022/02/22 01:48:29;;;;;;;14.60;10.20;;;;;;;18.22;37.60;99605.73;102294;1336;61474;-84
2022/02/22 01:51:19;;;;;;;;;;;;;;;;;;;;;
2022/02/22 01:54:39;;;;;;;14.60;10.80;;;;;;;18.21;37.60;99586.17;102331;1335;73973;-83
2022/02/22 01:58:05;;;;;;;14.90;10.40;;;;;;;18.21;37.65;99567.52;101832;1342;73623;-84
2022/02/22 02:01:08;;;;;;;;;;;;;;;;;;;;;
2022/02/22 02:04:09;;;;;;;;;;;;;;;;;;;;;
2022/02/22 02:07:35;;;;;;;15.00;10.30;;;;;;;18.21;37.50;99570.92;101635;1348;74265;-85
2022/02/22 02:10:30;;;;;;;16.30;10.60;;;;;;;18.21;37.55;99563.60;101476;1351;75901;-84
2022/02/22 02:13:39;;;;;;;13.80;10.10;;;;;;;18.21;37.53;99571.77;101371;1351;61273;-81
2022/02/22 02:16:36;;;;;;;14.20;10.40;;;;;;;18.21;37.61;99578.73;101382;1350;61611;-82
2022/02/22 02:19:52;;;;;;;14.30;10.30;;;;;;;18.21;37.57;99571.80;101578;1345;72891;-80
2022/02/22 02:23:02;;;;;;;;;;;;;;;;;;;;;
2022/02/22 02:26:13;;;;;;;14.90;10.40;;;;;;;18.20;37.54;99579.85;100755;1358;61126;-82
2022/02/22 02:29:43;;;;;;;15.40;10.70;;;;;;;18.20;37.57;99570.27;100315;1362;61745;-83
2022/02/22 02:32:38;;;;;;;;;;;;;;;;;;;;;
2022/02/22 02:35:32;;;;;;;13.70;10.30;;;;;;;18.20;37.57;99573.09;100659;1355;74866;-83
2022/02/22 02:38:31;;;;;;;;;;;;;;;;;;;;;
2022/02/22 02:42:03;;;;;;;14.30;10.70;;;;;;;18.20;37.53;99580.91;100892;1356;61275;-83
2022/02/22 02:45:02;;;;;;;13.70;10.00;;;;;;;18.20;37.54;99584.14;100923;1354;71788;-82
2022/02/22 02:48:43;;;;;;;;;;;;;;;;;;;;;
2022/02/22 02:52:00;;;;;;;;;;;;;;;;;;;;;
2022/02/22 02:54:55;;;;;;;;;;;;;;;;;;;;;
2022/02/22 02:57:44;;;;;;;;;;;;;;;;;;;;;
2022/02/22 03:01:02;;;;;;;;;;;;;;;;;;;;;
2022/02/22 03:04:19;;;;;;;;;;;;;;;;;;;;;
2022/02/22 03:07:34;;;;;;;13.50;9.30;;;;;;;18.19;37.67;99579.25;101876;1338;61502;-80
2022/02/22 03:10:39;;;;;;;17.00;10.00;;;;;;;18.18;37.52;99583.55;101901;1338;73849;-83
2022/02/22 03:13:37;;;;;;;16.40;11.00;;;;;;;18.18;37.57;99581.08;101944;1338;73971;-83
2022/02/22 03:16:47;;;;;;;;;;;;;;;;;;;;;
2022/02/22 03:19:35;;;;;;;14.60;10.20;;;;;;;18.19;37.49;99577.27;101903;1340;61401;-83
2022/02/22 03:22:36;;;;;;;;;;;;;;;;;;;;;
2022/02/22 03:25:28;;;;;;;12.80;10.00;;;;;;;18.19;37.59;99582.64;101820;1340;73572;-83
2022/02/22 03:28:34;;;;;;;15.00;10.50;;;;;;;18.19;37.67;99578.89;102077;1333;61572;-82
2022/02/22 03:31:36;;;;;;;13.70;10.00;;;;;;;18.19;37.61;99573.92;102352;1334;61703;-84
2022/02/22 03:34:45;;;;;;;;;;;;;;;;;;;;;
2022/02/22 03:38:15;;;;;;;14.00;9.80;;;;;;;18.18;37.65;99579.67;102018;1338;73647;-85
2022/02/22 03:41:29;;;;;;;13.40;9.60;;;;;;;18.18;37.67;99577.15;101996;1337;61227;-83
2022/02/22 03:44:31;;;;;;;;;;;;;;;;;;;;;
2022/02/22 03:47:40;;;;;;;12.80;9.80;;;;;;;18.18;37.76;99572.38;102432;1332;70500;-79
2022/02/22 03:51:06;;;;;;;12.80;9.60;;;;;;;18.18;37.59;99576.29;102480;1329;73621;-81
2022/02/22 03:54:14;;;;;;;13.50;9.50;;;;;;;18.18;37.64;99575.73;102600;1329;61404;-83
2022/02/22 03:57:21;;;;;;;14.60;10.00;;;;;;;18.18;37.63;99565.44;102638;1326;61224;-80
2022/02/22 04:00:32;;;;;;;13.90;10.10;;;;;;;18.18;37.59;99561.14;102553;1329;74323;-87
2022/02/22 04:03:40;;;;;;;13.30;9.80;;;;;;;18.18;37.71;99566.15;102802;1325;74938;-79
2022/02/22 04:06:33;;;;;;;15.50;10.00;;;;;;;18.17;37.66;99563.01;102781;1324;61332;-81
2022/02/22 04:09:43;;;;;;;14.50;10.10;;;;;;;18.18;37.57;99564.20;102928;1324;61228;-82
2022/02/22 04:12:50;;;;;;;15.00;10.00;;;;;;;18.17;37.58;99568.02;103526;1318;74693;-82
2022/02/22 04:15:56;;;;;;;;;;;;;;;;;;;;;
2022/02/22 04:19:14;;;;;;;;;;;;;;;;;;;;;
2022/02/22 04:22:43;;;;;;;15.40;9.90;;;;;;;18.16;37.65;99559.02;103001;1324;61339;-81
2022/02/22 04:25:18;;;;;;;13.10;9.60;;;;;;;18.16;37.73;99559.94;102971;1325;72939;-81
2022/02/22 04:28:32;;;;;;;14.40;10.50;;;;;;;18.16;37.80;99571.14;103093;1319;75792;-84
2022/02/22 04:31:27;;;;;;;14.60;10.60;;;;;;;18.15;37.86;99584.35;103556;1319;61421;-82
2022/02/22 04:34:26;;;;;;;15.50;10.60;;;;;;;18.15;37.80;99596.63;103373;1317;61413;-84
2022/02/22 04:37:40;;;;;;;;;;;;;;;;;;;;;
2022/02/22 04:40:51;;;;;;;14.50;9.80;;;;;;;18.15;37.85;99601.27;103643;1319;74881;-82
2022/02/22 04:44:25;;;;;;;15.30;10.40;;;;;;;18.15;37.79;99591.70;102732;1325;61583;-79
2022/02/22 04:46:53;;;;;;;15.90;11.10;;;;;;;18.15;37.87;99593.65;102669;1323;61307;-82
2022/02/22 04:50:18;;;;;;;;;;;;;;;;;;;;;
2022/02/22 04:53:28;;;;;;;17.70;12.00;;;;;;;18.16;37.73;99601.88;102413;1332;75817;-84
2022/02/22 04:56:33;;;;;;;;;;;;;;;;;;;;;
2022/02/22 04:59:29;;;;;;;;;;;;;;;;;;;;;
2022/02/22 05:02:57;;;;;;;17.20;12.40;;;;;;;18.17;37.58;99607.70;101611;1347;72802;-79
2022/02/22 05:05:57;;;;;;;20.30;13.40;;;;;;;18.18;37.56;99619.19;101584;1347;75959;-83
2022/02/22 05:08:24;;;;;;;23.90;15.00;;;;;;;18.20;37.27;99629.23;101553;1347;61681;-87
2022/02/22 05:11:22;;;;;;;;;;;;;;;;;;;;;
2022/02/22 05:14:31;;;;;;;;;;;;;;;;;;;;;
2022/02/22 05:17:43;;;;;;;27.70;15.30;;;;;;;18.24;36.75;99636.70;101618;1344;75931;-81
2022/02/22 05:20:32;;;;;;;26.90;16.30;;;;;;;18.26;36.60;99635.16;101663;1344;62984;-83
2022/02/22 05:23:35;;;;;;;23.70;16.20;;;;;;;18.26;36.34;99633.91;101730;1344;61378;-83
2022/02/22 05:26:54;;;;;;;30.10;17.40;;;;;;;18.27;36.18;99629.38;101469;1350;71650;-83
2022/02/22 05:29:52;;;;;;;25.20;16.50;;;;;;;18.28;35.89;99632.17;101505;1344;76140;-78
2022/02/22 05:32:32;;;;;;;33.90;20.70;;;;;;;18.29;35.74;99641.33;101558;1338;61435;-80
2022/02/22 05:35:25;;;;;;;31.40;20.10;;;;;;;18.30;35.68;99641.83;101936;1333;61622;-79
2022/02/22 05:38:01;;;;;;;38.10;22.50;;;;;;;18.30;35.60;99642.89;102383;1329;73005;-81
2022/02/22 05:40:47;;;;;;;42.40;23.40;;;;;;;18.30;35.39;99642.48;103113;1320;76511;-82
2022/02/22 05:43:34;;;;;;;42.80;24.00;;;;;;;18.32;35.28;99642.75;102768;1323;61895;-81
2022/02/22 05:46:02;;;;;;;49.50;26.00;;;;;;;18.33;35.22;99650.10;102619;1324;61821;-80
2022/02/22 05:48:42;;;;;;;34.60;22.00;;;;;;;18.33;35.20;99649.55;102792;1323;62710;-79
2022/02/22 05:51:27;;;;;;;38.60;23.80;;;;;;;18.34;35.06;99651.30;102673;1323;75918;-79
2022/02/22 05:53:52;;;;;;;49.40;25.80;;;;;;;18.35;35.03;99655.30;102701;1323;62004;-79
2022/02/22 05:56:27;;;;;;;41.40;26.50;;;;;;;18.33;35.10;99664.73;102509;1320;61112;-81
2022/02/22 05:58:52;;;;;;;47.60;26.70;;;;;;;18.31;35.04;99668.64;103408;1318;62215;-80
2022/02/22 06:01:27;;;;;;;48.70;26.70;;;;;;;18.27;35.06;99668.37;102933;1320;61445;-80
2022/02/22 06:03:53;;;;;;;54.80;27.70;;;;;;;18.25;35.04;99674.59;103319;1312;61555;-80
2022/02/22 06:06:22;;;;;;;50.60;27.40;;;;;;;18.23;35.05;99668.48;103763;1312;61275;-80
2022/02/22 06:08:47;;;;;;;42.10;26.10;;;;;;;18.21;35.03;99659.61;103628;1312;73789;-79
2022/02/22 06:11:34;;;;;;;42.70;26.10;;;;;;;18.20;35.00;99654.45;103448;1314;59763;-79
2022/02/22 06:13:59;;;;;;;38.50;25.20;;;;;;;18.22;34.99;99654.13;104799;1312;61302;-79
2022/02/22 06:16:26;;;;;;;39.20;25.40;;;;;;;18.25;34.95;99657.48;104349;1312;61236;-79
2022/02/22 06:18:51;;;;;;;43.10;24.80;;;;;;;18.28;34.89;99661.52;103837;1312;61336;-81
2022/02/22 06:21:17;;;;;;;37.80;24.50;;;;;;;18.31;34.77;99667.02;103951;1306;61333;-80
2022/02/22 06:23:43;;;;;;;36.70;24.60;;;;;;;18.33;34.78;99669.70;104324;1306;59984;-80
2022/02/22 06:26:09;;;;;;;36.90;24.60;;;;;;;18.34;34.63;99668.02;104220;1306;61473;-81
2022/02/22 06:28:45;;;;;;;36.30;23.40;;;;;;;18.35;34.63;99670.94;104447;1305;61297;-80
2022/02/22 06:31:11;;;;;;;35.60;22.10;;;;;;;18.38;34.52;99671.30;104634;1306;74215;-80
2022/02/22 06:33:37;;;;;;;36.00;22.80;;;;;;;18.41;34.54;99683.19;104563;1305;61259;-80
2022/02/22 06:36:03;;;;;;;31.90;21.30;;;;;;;18.44;34.53;99685.98;104380;1306;60099;-80
2022/02/22 06:38:38;;;;;;;35.90;21.60;;;;;;;18.47;34.43;99686.45;104377;1305;61381;-81
2022/02/22 06:41:09;;;;;;;41.40;21.30;;;;;;;18.50;34.48;99682.98;104733;1306;73561;-80
2022/02/22 06:43:35;;;;;;;32.10;20.20;;;;;;;18.54;34.54;99685.00;104371;1306;74692;-82
2022/02/22 06:46:03;;;;;;;33.50;21.10;;;;;;;18.56;34.38;99691.05;104331;1306;340585;-81
2022/02/22 06:48:38;;;;;;;38.60;21.30;;;;;;;18.59;34.34;99708.30;104571;1306;61610;-81
2022/02/22 06:51:04;;;;;;;35.40;22.70;;;;;;;18.59;34.42;99720.60;104512;1306;62250;-81
2022/02/22 06:53:29;;;;;;;44.10;24.90;;;;;;;18.59;34.44;99728.45;104379;1306;59998;-81
2022/02/22 06:55:56;;;;;;;35.10;21.40;;;;;;;18.57;34.41;99731.48;104634;1305;61260;-84
2022/02/22 06:58:22;;;;;;;38.90;22.10;;;;;;;18.53;34.54;99742.98;104715;1306;59465;-81
2022/02/22 07:00:51;;;;;;;41.50;25.70;;;;;;;18.51;34.62;99749.04;104478;1306;61345;-80
2022/02/22 07:03:18;;;;;;;37.10;23.90;;;;;;;18.49;34.57;99755.42;105200;1305;75879;-80
2022/02/22 07:05:44;;;;;;;44.00;23.30;;;;;;;18.40;34.54;99759.13;105074;1306;59313;-80
2022/02/22 07:08:10;;;;;;;36.60;22.20;;;;;;;18.29;34.80;99760.11;105361;1305;59263;-80
2022/02/22 07:10:35;;;;;;;35.00;21.70;;;;;;;18.28;34.95;99765.42;105401;1305;59521;-80
2022/02/22 07:13:02;;;;;;;33.60;20.40;;;;;;;18.27;35.12;99767.55;105329;1306;59682;-80
2022/02/22 07:15:28;;;;;;;32.50;20.60;;;;;;;18.30;35.30;99774.88;105416;1305;60583;-81
2022/02/22 07:17:58;;;;;;;33.40;19.50;;;;;;;18.32;35.31;99776.83;105298;1306;59345;-80
2022/02/22 07:20:24;;;;;;;28.20;19.00;;;;;;;18.34;35.36;99777.95;104668;1304;61972;-80
2022/02/22 07:22:55;;;;;;;28.00;19.70;;;;;;;18.35;35.38;99779.29;104264;1306;72937;-80
2022/02/22 07:25:45;;;;;;;30.00;18.90;;;;;;;18.36;35.43;99777.23;104561;1305;74983;-80
2022/02/22 07:28:14;;;;;;;32.10;19.20;;;;;;;18.36;35.32;99767.64;103813;1312;61284;-79
2022/02/22 07:30:48;;;;;;;29.10;18.90;;;;;;;18.36;35.38;99772.59;103830;1312;61195;-79
2022/02/22 07:33:42;;;;;;;24.90;17.80;;;;;;;18.38;35.23;99779.23;103945;1312;71536;-81
2022/02/22 07:36:24;;;;;;;26.60;18.00;;;;;;;18.42;35.22;99789.45;103832;1312;74591;-80
2022/02/22 07:39:13;;;;;;;27.40;17.30;;;;;;;18.46;35.12;99792.73;103847;1312;61510;-82
2022/02/22 07:41:53;;;;;;;30.20;16.60;;;;;;;18.50;35.23;99801.16;103983;1312;61465;-81
2022/02/22 07:44:18;;;;;;;27.70;16.50;;;;;;;18.54;35.36;99801.71;103643;1312;71629;-79
2022/02/22 07:46:55;;;;;;;;;;;;;;;;;;;;;
2022/02/22 07:49:23;;;;;;;31.20;15.90;;;;;;;18.60;35.40;99813.36;104033;1312;61619;-79
2022/02/22 07:51:49;;;;;;;28.30;16.50;;;;;;;18.63;35.54;99817.59;103695;1312;61347;-79
2022/02/22 07:54:15;;;;;;;29.00;17.90;;;;;;;18.65;35.62;99822.43;103614;1312;61776;-80
2022/02/22 07:56:40;;;;;;;38.80;20.90;;;;;;;18.63;35.61;99820.27;103908;1312;59584;-79
2022/02/22 07:59:06;;;;;;;27.80;18.70;;;;;;;18.58;35.55;99821.41;104128;1312;61309;-80
2022/02/22 08:01:32;;;;;;;28.60;18.30;;;;;;;18.52;35.51;99823.27;103632;1312;60302;-79
2022/02/22 08:03:57;;;;;;;25.50;18.20;;;;;;;18.44;35.48;99825.45;103786;1312;61406;-80
2022/02/22 08:06:43;;;;;;;35.70;19.10;;;;;;;18.41;35.54;99829.79;104112;1306;72636;-81
2022/02/22 08:09:10;;;;;;;27.60;19.40;;;;;;;18.39;35.49;99832.59;104279;1306;74955;-80
2022/02/22 08:11:35;;;;;;;25.60;18.40;;;;;;;18.27;35.28;99836.50;104298;1305;61356;-80
2022/02/22 08:14:05;;;;;;;29.40;17.20;;;;;;;18.14;35.36;99835.71;104319;1306;61310;-80
2022/02/22 08:16:42;;;;;;;27.50;17.00;;;;;;;18.08;35.33;99839.36;104461;1306;73978;-81
2022/02/22 08:19:13;;;;;;;23.90;16.20;;;;;;;18.08;35.40;99850.55;104435;1306;76077;-80
2022/02/22 08:21:58;;;;;;;25.10;16.00;;;;;;;18.10;35.28;99848.13;104458;1306;61338;-83
2022/02/22 08:24:27;;;;;;;24.90;16.20;;;;;;;18.14;35.32;99852.11;104272;1306;61504;-81
2022/02/22 08:27:14;;;;;;;26.70;16.80;;;;;;;18.14;35.27;99853.71;104403;1306;71532;-79
2022/02/22 08:29:41;;;;;;;21.40;15.90;;;;;;;18.15;35.23;99856.13;104127;1306;74732;-80
2022/02/22 08:32:07;;;;;;;23.80;15.10;;;;;;;18.13;35.22;99865.65;104185;1306;60141;-80
2022/02/22 08:34:38;;;;;;;25.00;15.40;;;;;;;18.14;35.23;99874.68;104305;1306;61299;-79
2022/02/22 08:37:09;;;;;;;22.90;14.40;;;;;;;18.18;35.29;99887.24;104350;1306;73009;-79
2022/02/22 08:39:43;;;;;;;23.20;14.60;;;;;;;18.21;35.25;99883.96;104452;1306;74332;-80
2022/02/22 08:42:18;;;;;;;20.60;14.10;;;;;;;18.28;35.17;99887.03;105098;1306;60182;-80
2022/02/22 08:44:43;;;;;;;24.30;14.10;;;;;;;18.33;35.22;99888.42;104218;1306;61290;-80
2022/02/22 08:47:09;;;;;;;25.50;14.30;;;;;;;18.38;35.18;99887.73;104232;1306;61407;-80
2022/02/22 08:49:36;;;;;;;22.90;13.20;;;;;;;18.42;35.25;99887.79;104411;1306;61388;-80
2022/02/22 08:52:02;;;;;;;24.40;13.30;;;;;;;18.45;35.17;99888.62;104586;1305;59742;-81
2022/02/22 08:54:33;;;;;;;20.90;14.00;;;;;;;18.45;35.25;99888.80;104136;1306;61717;-80
2022/02/22 08:57:00;;;;;;;22.70;14.30;;;;;;;18.41;35.19;99892.14;104375;1307;73984;-80
2022/02/22 08:59:25;;;;;;;25.10;13.50;;;;;;;18.35;35.18;99898.31;104215;1309;75832;-81
2022/02/22 09:01:53;;;;;;;31.40;12.80;;;;;;;18.28;35.14;99899.88;104236;1309;60168;-80
2022/02/22 09:04:19;;;;;;;23.00;11.40;;;;;;;18.21;35.24;99908.23;103588;1306;61785;-79
2022/02/22 09:06:47;;;;;;;27.10;13.40;;;;;;;18.21;35.50;99910.89;103537;1309;61335;-79
2022/02/22 09:09:13;;;;;;;32.30;12.60;;;;;;;18.21;35.64;99909.05;103964;1309;75988;-79
2022/02/22 09:11:39;;;;;;;17.90;10.70;;;;;;;18.26;35.59;99911.19;104097;1309;61056;-81
2022/02/22 09:14:05;;;;;;;20.20;10.10;;;;;;;18.30;35.58;99912.35;104016;1309;61285;-80
2022/02/22 09:16:30;;;;;;;19.60;11.10;;;;;;;18.34;35.58;99918.48;104099;1309;60102;-79
2022/02/22 09:18:56;;;;;;;21.10;11.30;;;;;;;18.38;35.44;99921.04;104086;1308;61908;-79
2022/02/22 09:21:31;;;;;;;21.60;10.80;;;;;;;18.40;35.44;99925.66;104089;1306;61654;-78
2022/02/22 09:24:06;;;;;;;15.20;10.60;;;;;;;18.43;35.22;99936.67;103998;1309;61281;-81
2022/02/22 09:26:32;;;;;;;19.10;10.50;;;;;;;18.46;35.19;99938.63;104020;1309;72749;-80
2022/02/22 09:28:58;;;;;;;20.10;10.30;;;;;;;18.48;35.20;99940.23;103895;1309;61164;-79
2022/02/22 09:31:25;;;;;;;18.60;9.50;;;;;;;18.51;34.98;99943.56;104567;1306;61521;-80
2022/02/22 09:33:51;;;;;;;21.20;10.20;;;;;;;18.54;34.86;99946.41;104277;1306;61285;-80
2022/02/22 09:36:17;;;;;;;17.30;9.70;;;;;;;18.56;34.87;99946.28;104316;1306;61395;-79
2022/02/22 09:38:43;;;;;;;15.90;9.30;;;;;;;18.57;34.80;99951.14;104181;1306;61291;-79
2022/02/22 09:41:10;;;;;;;14.40;9.30;;;;;;;18.59;34.72;99950.31;104486;1304;60117;-79
2022/02/22 09:43:37;;;;;;;15.60;10.00;;;;;;;18.61;34.67;99951.10;104783;1304;61261;-81
2022/02/22 09:46:07;;;;;;;15.80;9.60;;;;;;;18.60;34.66;99946.30;104432;1306;61339;-80
2022/02/22 09:48:32;;;;;;;17.60;9.90;;;;;;;18.59;34.61;99944.07;105060;1306;75376;-80
2022/02/22 09:50:58;;;;;;;21.50;9.80;;;;;;;18.59;34.50;99941.55;104374;1304;61294;-80
2022/02/22 09:53:23;;;;;;;22.40;10.30;;;;;;;18.61;34.43;99943.95;104330;1306;61351;-80
2022/02/22 09:55:50;;;;;;;18.60;9.90;;;;;;;18.55;34.38;99949.39;104176;1306;59406;-79
2022/02/22 09:58:16;;;;;;;16.00;10.40;;;;;;;18.45;34.38;99949.90;104119;1306;61808;-80
2022/02/22 10:00:45;;;;;;;22.10;10.10;;;;;;;18.33;34.31;99954.31;104188;1305;59514;-81
2022/02/22 10:03:18;;;;;;;19.40;10.60;;;;;;;18.21;34.62;99955.96;104089;1306;59731;-80
2022/02/22 10:06:01;;;;;;;23.60;9.80;;;;;;;18.16;34.70;99954.11;104036;1306;74109;-80
2022/02/22 10:08:31;;;;;;;25.30;10.80;;;;;;;18.15;34.92;99947.27;104915;1305;74588;-79
2022/02/22 10:11:09;;;;;;;18.70;10.00;;;;;;;18.15;34.91;99949.05;104038;1306;61851;-80
2022/02/22 10:13:36;;;;;;;16.00;11.00;;;;;;;18.17;34.89;99957.69;105261;1306;60299;-80
2022/02/22 10:16:12;;;;;;;20.10;10.30;;;;;;;18.18;34.74;99957.27;104167;1306;61495;-78
2022/02/22 10:18:48;;;;;;;20.50;11.40;;;;;;;18.18;34.81;99955.63;103895;1306;74734;-79
2022/02/22 10:21:15;;;;;;;18.70;10.10;;;;;;;18.17;34.74;99955.48;105391;1305;60490;-79
2022/02/22 10:23:40;;;;;;;19.80;10.10;;;;;;;18.20;34.66;99948.38;103808;1306;61440;-79
2022/02/22 10:26:26;;;;;;;20.80;10.20;;;;;;;18.28;34.79;99939.77;103895;1306;73911;-79
2022/02/22 10:28:52;;;;;;;18.10;10.10;;;;;;;18.38;35.02;99930.67;104294;1306;74802;-79
2022/02/22 10:31:35;;;;;;;18.20;10.00;;;;;;;18.44;35.16;99930.73;103952;1306;61233;-79
2022/02/22 10:34:01;;;;;;;20.10;10.40;;;;;;;18.50;35.08;99937.62;104102;1306;61259;-78
2022/02/22 10:36:53;;;;;;;18.00;10.30;;;;;;;18.53;35.21;99938.30;104006;1306;61403;-79
2022/02/22 10:39:19;;;;;;;16.30;9.30;;;;;;;18.56;35.07;99934.64;103541;1309;75746;-80
2022/02/22 10:41:50;;;;;;;17.30;9.40;;;;;;;18.60;35.21;99933.33;103429;1312;61616;-78
2022/02/22 10:44:42;;;;;;;21.30;9.30;;;;;;;18.65;35.22;99943.29;103950;1309;61423;-80
2022/02/22 10:47:16;;;;;;;15.40;8.80;;;;;;;18.68;35.21;99948.43;103893;1312;72886;-81
2022/02/22 10:50:03;;;;;;;17.70;8.50;;;;;;;18.70;35.06;99952.91;104174;1312;74953;-79
2022/02/22 10:52:29;;;;;;;21.00;7.90;;;;;;;18.70;35.11;99952.31;104557;1312;60996;-79
2022/02/22 10:54:58;;;;;;;17.40;8.50;;;;;;;18.67;34.79;99954.39;104477;1312;59878;-79
2022/02/22 10:57:52;;;;;;;20.30;8.50;;;;;;;18.55;34.68;99957.92;104687;1312;72900;-79
2022/02/22 11:00:18;;;;;;;12.60;7.60;;;;;;;18.43;34.31;99961.14;103995;1318;74874;-79
2022/02/22 11:02:44;;;;;;;13.90;7.70;;;;;;;18.30;34.27;99956.92;104291;1317;59370;-80
2022/02/22 11:05:10;;;;;;;11.20;7.20;;;;;;;18.28;34.19;99955.09;104014;1317;60372;-79
2022/02/22 11:07:36;;;;;;;12.50;7.30;;;;;;;18.26;34.01;99953.96;104361;1316;59970;-79
2022/02/22 11:10:02;;;;;;;12.80;7.80;;;;;;;18.22;33.83;99952.80;104294;1318;60377;-80
2022/02/22 11:12:35;;;;;;;11.30;7.10;;;;;;;18.05;33.42;99952.06;104173;1317;59276;-79
2022/02/22 11:15:10;;;;;;;20.20;7.30;;;;;;;17.78;33.46;99951.48;104146;1318;60479;-80
2022/02/22 11:17:47;;;;;;;13.10;7.40;;;;;;;17.69;33.25;99956.40;104538;1312;73886;-80
2022/02/22 11:20:29;;;;;;;14.80;6.90;;;;;;;17.48;33.40;99951.77;104732;1312;75801;-80
2022/02/22 11:23:00;;;;;;;12.50;7.00;;;;;;;17.57;33.67;99950.29;104560;1312;61395;-79
2022/02/22 11:25:33;;;;;;;13.50;7.10;;;;;;;17.67;33.74;99951.70;104728;1312;61592;-79
2022/02/22 11:28:06;;;;;;;12.60;6.50;;;;;;;17.78;33.64;99944.18;104836;1312;72488;-79
2022/02/22 11:30:32;;;;;;;11.40;7.00;;;;;;;17.89;33.73;99946.63;104590;1312;75007;-80
2022/02/22 11:33:06;;;;;;;11.90;7.20;;;;;;;17.98;33.62;99950.84;104814;1312;60412;-80
2022/02/22 11:35:32;;;;;;;13.10;6.40;;;;;;;18.04;33.61;99955.88;104724;1311;61021;-80
2022/02/22 11:38:08;;;;;;;12.00;6.60;;;;;;;18.12;33.61;99953.40;105123;1306;59707;-79
2022/02/22 11:40:34;;;;;;;9.40;6.00;;;;;;;18.20;33.76;99963.61;104698;1306;76052;-80
2022/02/22 11:43:05;;;;;;;12.20;5.90;;;;;;;18.27;33.68;99971.70;104641;1306;62809;-79
2022/02/22 11:45:30;;;;;;;9.30;6.00;;;;;;;18.32;33.78;99974.55;105404;1306;60480;-79
2022/02/22 11:48:16;;;;;;;10.80;6.40;;;;;;;18.35;33.65;99973.25;105427;1306;59261;-80
2022/02/22 11:50:43;;;;;;;12.10;5.90;;;;;;;18.36;33.57;99978.04;105329;1305;75875;-80
2022/02/22 11:53:10;;;;;;;15.90;6.80;;;;;;;18.28;33.60;99979.81;104929;1306;59202;-80
2022/02/22 11:55:37;;;;;;;12.50;6.70;;;;;;;18.20;33.49;99981.44;105013;1306;61597;-80
2022/02/22 11:58:10;;;;;;;12.60;6.70;;;;;;;18.08;33.48;99983.59;104913;1306;73810;-80
2022/02/22 12:00:36;;;;;;;14.20;7.10;;;;;;;17.91;33.32;99979.60;105093;1306;74681;-80
2022/02/22 12:03:12;;;;;;;12.40;6.50;;;;;;;17.84;33.48;99978.98;105200;1305;60397;-79
2022/02/22 12:05:42;;;;;;;12.50;7.50;;;;;;;17.87;33.56;99977.02;105296;1306;62308;-79
2022/02/22 12:08:10;;;;;;;10.90;7.10;;;;;;;17.65;33.36;99972.86;105308;1305;73789;-80
2022/02/22 12:11:06;;;;;;;10.10;6.20;;;;;;;17.43;33.58;99970.81;105337;1305;76101;-80
2022/02/22 12:13:42;;;;;;;12.60;6.50;;;;;;;17.48;33.87;99968.86;104347;1311;61402;-81
2022/02/22 12:16:20;;;;;;;12.00;7.20;;;;;;;17.58;34.01;99972.44;104030;1312;60473;-80
2022/02/22 12:18:50;;;;;;;13.60;6.80;;;;;;;17.66;34.09;99975.65;103742;1312;72797;-79
2022/02/22 12:21:20;;;;;;;14.20;6.80;;;;;;;17.72;34.13;99975.41;103680;1312;74850;-79
2022/02/22 12:23:46;;;;;;;14.40;6.50;;;;;;;17.78;34.14;99976.73;103691;1312;61671;-79
2022/02/22 12:26:22;;;;;;;12.80;6.80;;;;;;;17.85;34.12;99976.61;103732;1312;61418;-80
2022/02/22 12:28:53;;;;;;;14.80;6.90;;;;;;;17.91;34.19;99982.25;103641;1312;73992;-79
2022/02/22 12:31:41;;;;;;;13.20;6.90;;;;;;;17.97;34.45;99990.78;103665;1312;76016;-80
2022/02/22 12:34:13;;;;;;;14.30;6.60;;;;;;;18.01;34.53;99994.60;103754;1312;61549;-80
2022/02/22 12:36:40;;;;;;;17.30;8.20;;;;;;;18.04;34.67;99995.81;104155;1312;61683;-80
2022/02/22 12:39:29;;;;;;;12.90;7.90;;;;;;;18.04;34.56;99999.73;104040;1312;73089;-83
2022/02/22 12:42:01;;;;;;;18.70;7.80;;;;;;;18.04;34.78;100005.42;104061;1312;74809;-81
2022/02/22 12:44:42;;;;;;;15.60;8.70;;;;;;;18.00;34.91;100009.21;103974;1312;61305;-79
2022/02/22 12:47:19;;;;;;;16.10;8.20;;;;;;;17.96;34.97;100007.78;104123;1312;61399;-80
2022/02/22 12:49:47;;;;;;;14.30;7.60;;;;;;;17.96;35.17;100012.52;104349;1306;72872;-79
2022/02/22 12:52:15;;;;;;;17.20;8.10;;;;;;;17.99;35.24;100016.77;104188;1306;75024;-80
2022/02/22 12:54:41;;;;;;;19.30;8.40;;;;;;;17.98;35.43;100021.66;104182;1306;60813;-80
2022/02/22 12:57:12;;;;;;;18.70;8.00;;;;;;;17.91;35.49;100019.82;104368;1305;59384;-80
2022/02/22 12:59:47;;;;;;;13.70;8.70;;;;;;;17.95;35.66;100027.25;104701;1305;74104;-80
2022/02/22 13:02:13;;;;;;;17.50;8.30;;;;;;;17.92;35.79;100025.80;104488;1306;74468;-82
2022/02/22 13:04:48;;;;;;;18.50;8.10;;;;;;;17.86;35.90;100032.22;104373;1306;61173;-80
2022/02/22 13:07:15;;;;;;;19.50;8.10;;;;;;;17.88;36.11;100035.11;105377;1306;61599;-80
2022/02/22 13:09:41;;;;;;;14.50;7.10;;;;;;;17.94;36.45;100041.52;105411;1306;72989;-79
2022/02/22 13:12:07;;;;;;;19.20;8.00;;;;;;;18.01;36.66;100046.08;105400;1306;59420;-79
2022/02/22 13:14:39;;;;;;;13.20;6.40;;;;;;;18.06;36.74;100046.42;105497;1305;59212;-79
2022/02/22 13:17:05;;;;;;;16.10;7.40;;;;;;;18.07;36.94;100050.22;104661;1306;61169;-81